Terminal Aerodrome Forecast
Issued by NWS

Home | Current Version | Previous Version | Text Only | Print | Product List | Glossary On
Versions: 1 2 3 4 5 6 7 8 9 10 11 12 13 14 15 16 17 18
000
FTUS42 KMLB 130700 AAA
TAFSFB
TAF AMD
KSFB 130700Z 1307/1406 00000KT P6SM VCSH SCT025 SCT250
     FM131400 15004KT P6SM SCT030 SCT250
     FM131900 10008KT P6SM VCTS SCT040CB BKN250
     FM140100 14004KT P6SM SCT040 BKN120=

USA.gov is the U.S. government's official web portal to all federal, state and local government web resources and services.